Time;durP1;ratioP1;P1;durP2;ratioP2;P2;SDS_P1;SDS_P2;PMS_P1;PMS_P2;Temp;Humidity;BMP_temperature;BMP_pressure;BME280_temperature;BME280_humidity;BME280_pressure;Samples;Min_cycle;Max_cycle;Signal;HPM_P1;HPM_P2
2022/11/28 00:01:15;;;;;;;6.85;4.70;;;8.60;91.60;;;;;;5072859;28;20041;-31
2022/11/28 00:03:41;;;;;;;11.02;5.35;;;8.60;91.50;;;;;;5072771;28;20510;-31
2022/11/28 00:06:07;;;;;;;9.02;6.78;;;8.60;91.50;;;;;;5072579;28;20066;-27
2022/11/28 00:08:33;;;;;;;7.55;4.93;;;8.60;91.50;;;;;;5072533;28;20036;-32
2022/11/28 00:11:07;;;;;;;9.82;5.82;;;8.60;91.40;;;;;;5072560;28;20048;-29
2022/11/28 00:13:33;;;;;;;8.25;5.45;;;8.60;91.40;;;;;;5072784;28;20104;-31
2022/11/28 00:16:02;;;;;;;5.45;4.63;;;8.60;91.30;;;;;;5072462;28;20036;-27
2022/11/28 00:18:28;;;;;;;6.22;4.30;;;8.60;91.30;;;;;;5072547;28;20106;-34
2022/11/28 00:21:10;;;;;;;6.85;4.60;;;8.60;91.40;;;;;;5072630;28;20032;-30
2022/11/28 00:23:35;;;;;;;5.85;4.47;;;8.60;91.40;;;;;;5054681;28;20380;-27
2022/11/28 00:26:07;;;;;;;8.25;4.90;;;8.60;91.40;;;;;;5072778;28;20028;-30
2022/11/28 00:28:33;;;;;;;7.47;4.85;;;8.60;91.40;;;;;;5072125;28;20028;-30
2022/11/28 00:30:59;;;;;;;5.10;3.53;;;8.60;91.40;;;;;;5072315;28;20046;-30
2022/11/28 00:33:24;;;;;;;6.07;4.20;;;8.60;91.40;;;;;;5072452;28;20025;-32
2022/11/28 00:35:50;;;;;;;6.00;4.15;;;8.60;91.50;;;;;;5072104;28;20650;-30
2022/11/28 00:38:15;;;;;;;5.80;4.28;;;8.60;91.50;;;;;;5072320;28;20086;-32
2022/11/28 00:40:41;;;;;;;5.28;4.30;;;8.60;91.50;;;;;;5072236;28;20054;-28
2022/11/28 00:43:06;;;;;;;6.95;4.60;;;8.60;91.50;;;;;;5072562;28;20021;-31
2022/11/28 00:45:32;;;;;;;5.13;4.10;;;8.60;91.50;;;;;;5072463;28;20028;-27
2022/11/28 00:47:58;;;;;;;5.80;4.40;;;8.60;91.40;;;;;;5072208;28;20039;-32
2022/11/28 00:50:24;;;;;;;6.65;4.40;;;8.70;91.40;;;;;;5054103;28;20025;-28
2022/11/28 00:52:49;;;;;;;6.80;4.40;;;8.60;91.40;;;;;;5072059;28;20070;-27
2022/11/28 00:55:15;;;;;;;8.60;5.80;;;8.70;91.40;;;;;;5072070;28;20032;-30
2022/11/28 00:57:40;;;;;;;12.73;7.80;;;8.70;91.30;;;;;;5072079;28;20035;-28
2022/11/28 01:00:07;;;;;;;8.80;5.70;;;8.70;91.30;;;;;;5072294;28;20035;-29
2022/11/28 01:02:32;;;;;;;7.05;5.32;;;8.70;91.20;;;;;;5072199;28;20051;-27
2022/11/28 01:04:59;;;;;;;7.93;5.68;;;8.70;91.20;;;;;;5071898;28;20033;-30
2022/11/28 01:07:27;;;;;;;7.80;5.60;;;8.70;91.20;;;;;;5071908;28;20107;-29
2022/11/28 01:09:55;;;;;;;9.05;6.15;;;8.70;91.10;;;;;;5071772;28;20051;-28
2022/11/28 01:12:21;;;;;;;8.23;5.00;;;8.80;91.10;;;;;;5071825;28;20083;-29
2022/11/28 01:14:47;;;;;;;6.43;5.03;;;8.80;91.00;;;;;;5053725;28;20131;-26
2022/11/28 01:17:13;;;;;;;6.82;4.95;;;8.80;91.00;;;;;;5053807;28;20453;-30
2022/11/28 01:19:39;;;;;;;6.13;4.47;;;8.80;90.90;;;;;;5071909;28;20028;-33
2022/11/28 01:22:05;;;;;;;6.43;4.05;;;8.80;90.90;;;;;;5071932;28;20028;-30
2022/11/28 01:24:31;;;;;;;6.45;4.40;;;8.80;90.90;;;;;;5071921;28;20052;-28
2022/11/28 01:26:57;;;;;;;6.28;4.70;;;8.90;90.80;;;;;;5071739;28;20036;-29
2022/11/28 01:29:23;;;;;;;6.93;5.28;;;8.90;90.80;;;;;;5071659;28;20025;-30
2022/11/28 01:31:48;;;;;;;8.23;4.57;;;8.90;90.70;;;;;;5072063;28;20036;-34
2022/11/28 01:34:14;;;;;;;4.80;3.85;;;8.90;90.70;;;;;;5053682;28;20079;-28
2022/11/28 01:36:39;;;;;;;6.70;4.32;;;8.90;90.60;;;;;;5071874;28;20116;-28
2022/11/28 01:39:05;;;;;;;7.18;3.50;;;9.00;90.70;;;;;;5071777;28;20103;-30
2022/11/28 01:41:31;;;;;;;6.65;3.72;;;9.00;90.60;;;;;;5058160;28;20048;-30
2022/11/28 01:44:19;;;;;;;5.35;3.80;;;9.00;90.60;;;;;;5075598;28;20405;-26
2022/11/28 01:46:45;;;;;;;5.50;4.07;;;9.00;90.60;;;;;;5037218;28;20059;-29
2022/11/28 01:49:16;;;;;;;6.60;3.70;;;9.00;90.60;;;;;;5075464;28;20028;-28
2022/11/28 01:51:46;;;;;;;4.93;3.88;;;9.10;90.50;;;;;;5075457;28;20082;-28
2022/11/28 01:54:13;;;;;;;4.18;3.53;;;9.10;90.50;;;;;;5075234;28;20506;-27
2022/11/28 01:56:46;;;;;;;8.02;3.65;;;9.10;90.50;;;;;;5075374;28;20028;-29
2022/11/28 01:59:14;;;;;;;4.60;3.88;;;9.10;90.50;;;;;;5075260;28;20039;-29
2022/11/28 02:01:41;;;;;;;5.25;3.20;;;9.10;90.40;;;;;;5075436;28;20021;-30
2022/11/28 02:04:08;;;;;;;5.18;3.40;;;9.10;90.40;;;;;;5074981;28;20032;-30
2022/11/28 02:06:35;;;;;;;4.50;3.28;;;9.10;90.50;;;;;;5075180;28;20025;-30
2022/11/28 02:09:00;;;;;;;4.45;3.30;;;9.10;90.50;;;;;;5074913;28;20121;-31
2022/11/28 02:11:44;;;;;;;3.92;3.15;;;9.10;90.50;;;;;;5074847;28;20064;-28
2022/11/28 02:14:29;;;;;;;4.75;3.40;;;9.10;90.50;;;;;;5074937;28;20086;-27
2022/11/28 02:17:05;;;;;;;4.78;3.33;;;9.10;90.50;;;;;;5075000;28;20495;-29
2022/11/28 02:19:51;;;;;;;4.30;3.50;;;9.10;90.60;;;;;;5075219;28;20040;-30
2022/11/28 02:22:38;;;;;;;6.03;3.53;;;9.10;90.60;;;;;;5074760;28;20111;-27
2022/11/28 02:25:53;;;;;;;4.72;3.17;;;9.00;90.60;;;;;;5074629;28;20033;-31
2022/11/28 02:28:43;;;;;;;3.83;3.22;;;9.00;90.60;;;;;;5074709;28;20040;-29
2022/11/28 02:31:40;;;;;;;6.13;3.40;;;9.00;90.60;;;;;;5074846;28;20476;-34
2022/11/28 02:34:17;;;;;;;5.07;3.55;;;9.00;90.60;;;;;;5074567;28;20028;-31
2022/11/28 02:36:49;;;;;;;5.07;3.38;;;9.00;90.60;;;;;;5074523;28;20025;-28
2022/11/28 02:40:00;;;;;;;4.18;3.50;;;9.00;90.60;;;;;;5074414;28;20464;-27
2022/11/28 02:42:44;;;;;;;3.92;2.92;;;9.00;90.60;;;;;;5043205;28;20090;-28
2022/11/28 02:45:18;;;;;;;5.30;3.38;;;9.00;90.70;;;;;;5074395;28;20032;-30
2022/11/28 02:47:52;;;;;;;4.10;2.85;;;9.00;90.60;;;;;;5074384;28;20032;-30
2022/11/28 02:50:20;;;;;;;;;;;9.10;90.70;;;;;;5074680;28;20499;-32
2022/11/28 02:52:53;;;;;;;5.20;3.22;;;9.00;90.70;;;;;;5074152;28;19915;-31
2022/11/28 02:55:20;;;;;;;6.00;3.35;;;9.00;90.70;;;;;;5073938;28;20072;-31
2022/11/28 02:57:49;;;;;;;5.13;3.80;;;9.00;90.80;;;;;;5074465;28;20368;-27
2022/11/28 03:00:25;;;;;;;4.00;3.60;;;9.00;90.80;;;;;;5073968;28;20107;-31
2022/11/28 03:03:02;;;;;;;6.53;3.50;;;9.00;90.80;;;;;;5074247;28;20036;-28
2022/11/28 03:05:34;;;;;;;4.35;3.75;;;9.00;90.80;;;;;;5073818;28;20024;-31
2022/11/28 03:08:23;;;;;;;4.90;3.97;;;9.00;90.80;;;;;;5073956;28;20028;-29
2022/11/28 03:11:02;;;;;;;4.15;3.75;;;9.00;90.80;;;;;;5056047;28;20052;-28
2022/11/28 03:13:39;;;;;;;5.50;3.47;;;9.10;90.80;;;;;;5074166;28;20028;-30
2022/11/28 03:16:19;;;;;;;5.07;3.63;;;9.00;90.80;;;;;;5073657;28;20039;-29
2022/11/28 03:18:54;;;;;;;5.07;3.80;;;9.00;90.80;;;;;;5073739;28;20032;-35
2022/11/28 03:21:37;;;;;;;5.05;3.50;;;9.00;90.80;;;;;;5073674;28;20426;-28
2022/11/28 03:24:29;;;;;;;4.55;3.83;;;9.00;90.80;;;;;;5073591;28;20052;-29
2022/11/28 03:27:11;;;;;;;5.05;3.60;;;9.10;90.80;;;;;;5073436;28;20028;-30
2022/11/28 03:29:41;;;;;;;5.63;3.83;;;9.10;90.80;;;;;;5073635;28;20055;-30
2022/11/28 03:32:12;;;;;;;5.70;3.25;;;9.10;90.80;;;;;;5073453;28;20063;-26
2022/11/28 03:34:43;;;;;;;4.38;3.28;;;9.10;90.80;;;;;;5073421;28;20029;-30
2022/11/28 03:37:19;;;;;;;3.95;3.28;;;9.10;90.80;;;;;;5073308;28;20029;-31
2022/11/28 03:39:51;;;;;;;4.15;3.25;;;9.10;90.80;;;;;;5073299;28;20016;-27
2022/11/28 03:42:24;;;;;;;6.05;3.42;;;9.10;90.80;;;;;;5073165;28;20030;-27
2022/11/28 03:44:59;;;;;;;5.43;3.67;;;9.10;90.80;;;;;;5073212;28;20028;-28
2022/11/28 03:47:29;;;;;;;4.22;3.53;;;9.20;90.80;;;;;;5073027;28;20442;-28
2022/11/28 03:49:58;;;;;;;5.07;3.45;;;9.20;90.80;;;;;;5073315;28;20024;-33
2022/11/28 03:52:30;;;;;;;4.40;3.60;;;9.10;90.80;;;;;;5073190;28;20115;-28
2022/11/28 03:55:25;;;;;;;5.13;3.53;;;9.20;90.80;;;;;;5054824;28;20052;-27
2022/11/28 03:57:59;;;;;;;3.80;3.45;;;9.20;90.80;;;;;;5062125;28;20124;-32
2022/11/28 04:00:25;;;;;;;4.93;3.80;;;9.20;90.80;;;;;;5072768;28;20031;-28
2022/11/28 04:03:19;;;;;;;5.25;3.90;;;9.10;90.80;;;;;;5072154;28;20032;-35
2022/11/28 04:05:47;;;;;;;4.82;4.03;;;9.20;90.80;;;;;;5072756;28;20442;-28
2022/11/28 04:08:25;;;;;;;6.03;4.97;;;9.20;90.80;;;;;;5072803;28;20452;-29
2022/11/28 04:11:02;;;;;;;8.90;7.28;;;9.20;90.80;;;;;;5072561;28;20538;-33
2022/11/28 04:13:37;;;;;;;9.50;7.05;;;9.20;90.80;;;;;;5072819;28;20025;-26
2022/11/28 04:16:26;;;;;;;7.78;6.53;;;9.20;90.90;;;;;;5072481;28;20036;-31
2022/11/28 04:19:01;;;;;;;7.35;5.68;;;9.20;90.80;;;;;;5061610;28;20495;-28
2022/11/28 04:21:43;;;;;;;6.53;4.78;;;9.20;90.80;;;;;;5072561;28;20043;-27
2022/11/28 04:24:14;;;;;;;6.63;5.43;;;9.20;90.80;;;;;;5072505;28;20032;-31
2022/11/28 04:27:04;;;;;;;6.13;4.50;;;9.20;90.80;;;;;;5072425;28;20060;-27
2022/11/28 04:29:35;;;;;;;4.82;3.95;;;9.20;90.80;;;;;;5072373;28;20028;-29
2022/11/28 04:32:04;;;;;;;5.00;4.25;;;9.20;90.80;;;;;;5072098;28;20024;-32
2022/11/28 04:34:33;;;;;;;5.40;3.97;;;9.20;90.90;;;;;;5072285;28;20534;-31
2022/11/28 04:37:00;;;;;;;4.97;3.65;;;9.20;90.90;;;;;;5072484;28;20126;-29
2022/11/28 04:39:27;;;;;;;4.88;3.50;;;9.10;90.90;;;;;;5072416;28;20024;-30
2022/11/28 04:42:12;;;;;;;4.88;3.75;;;9.20;90.90;;;;;;5071836;28;20031;-32
2022/11/28 04:44:52;;;;;;;5.68;4.15;;;9.10;90.90;;;;;;5071553;28;20040;-28
2022/11/28 04:47:18;;;;;;;5.40;3.80;;;9.20;90.90;;;;;;5071615;28;20036;-29
2022/11/28 04:49:44;;;;;;;4.93;3.85;;;9.20;90.90;;;;;;5071649;28;20025;-29
2022/11/28 04:52:20;;;;;;;4.82;3.95;;;9.20;90.90;;;;;;5071590;28;20036;-29
2022/11/28 04:54:56;;;;;;;5.05;4.10;;;9.20;90.90;;;;;;5071479;28;20028;-30
2022/11/28 04:57:33;;;;;;;4.80;4.07;;;9.20;90.90;;;;;;5071521;28;20025;-29
2022/11/28 05:00:01;;;;;;;5.47;3.80;;;9.20;90.90;;;;;;5071821;28;20074;-29
2022/11/28 05:02:28;;;;;;;5.40;4.03;;;9.20;90.90;;;;;;5071803;28;20025;-30
2022/11/28 05:04:54;;;;;;;6.00;4.68;;;9.20;90.90;;;;;;5071509;28;20046;-29
2022/11/28 05:07:22;;;;;;;6.63;4.22;;;9.20;90.90;;;;;;5071722;28;20388;-30
2022/11/28 05:09:48;;;;;;;5.35;4.05;;;9.20;90.90;;;;;;5071359;28;20041;-32
2022/11/28 05:12:14;;;;;;;5.72;3.90;;;9.20;90.90;;;;;;5071360;28;20484;-35
2022/11/28 05:14:39;;;;;;;5.63;4.32;;;9.20;90.90;;;;;;5074035;28;20036;-30
2022/11/28 05:17:06;;;;;;;4.65;3.90;;;9.20;90.90;;;;;;5075420;28;20070;-31
2022/11/28 05:19:31;;;;;;;5.18;4.30;;;9.20;90.90;;;;;;5075364;28;20028;-34
2022/11/28 05:21:57;;;;;;;4.45;3.67;;;9.20;90.90;;;;;;5075374;28;20031;-29
2022/11/28 05:24:22;;;;;;;4.35;3.50;;;9.20;90.90;;;;;;5075303;28;20538;-28
2022/11/28 05:26:48;;;;;;;4.10;3.70;;;9.20;90.90;;;;;;5075628;28;20108;-28
2022/11/28 05:29:14;;;;;;;4.50;3.45;;;9.20;90.90;;;;;;5075292;28;20029;-32
2022/11/28 05:31:40;;;;;;;4.15;3.45;;;9.20;90.90;;;;;;5075068;28;20035;-27
2022/11/28 05:34:05;;;;;;;4.07;3.28;;;9.20;91.00;;;;;;5075036;28;20033;-32
2022/11/28 05:36:31;;;;;;;4.68;3.55;;;9.20;91.00;;;;;;5057018;28;20032;-32
2022/11/28 05:38:57;;;;;;;3.90;3.45;;;9.10;91.00;;;;;;5075198;28;20082;-28
2022/11/28 05:41:30;;;;;;;4.20;3.50;;;9.20;91.00;;;;;;5075185;28;20031;-29
2022/11/28 05:43:57;;;;;;;3.42;3.03;;;9.20;91.00;;;;;;5075188;28;20388;-32
2022/11/28 05:46:23;;;;;;;3.58;3.10;;;9.20;91.00;;;;;;5075516;28;20448;-27
2022/11/28 05:48:48;;;;;;;3.83;3.08;;;9.20;91.00;;;;;;5075644;28;20039;-27
2022/11/28 05:51:14;;;;;;;4.53;3.10;;;9.20;91.00;;;;;;5075792;28;20081;-33
2022/11/28 05:53:40;;;;;;;3.42;3.13;;;9.20;91.00;;;;;;5075455;28;20048;-34
2022/11/28 05:56:17;;;;;;;3.92;2.90;;;9.20;91.00;;;;;;5075414;28;20025;-29
2022/11/28 05:58:43;;;;;;;3.85;3.00;;;9.20;91.00;;;;;;5075410;28;20028;-32
2022/11/28 06:01:16;;;;;;;3.53;3.10;;;9.30;91.00;;;;;;5075247;28;20028;-28
2022/11/28 06:03:42;;;;;;;3.00;2.70;;;9.30;91.00;;;;;;5075233;28;20032;-28
2022/11/28 06:06:16;;;;;;;4.28;2.90;;;9.20;91.00;;;;;;5075084;28;20035;-28
2022/11/28 06:08:42;;;;;;;3.33;3.03;;;9.20;91.00;;;;;;5075149;28;20115;-29
2022/11/28 06:11:08;;;;;;;3.30;3.00;;;9.20;91.00;;;;;;5074789;28;20056;-25
2022/11/28 06:13:34;;;;;;;3.65;2.97;;;9.20;91.10;;;;;;5075009;28;20029;-29
2022/11/28 06:16:00;;;;;;;3.60;2.85;;;9.20;91.10;;;;;;5075019;28;20547;-35
2022/11/28 06:18:26;;;;;;;3.10;2.70;;;9.20;91.10;;;;;;5074970;28;20025;-29
2022/11/28 06:20:51;;;;;;;3.20;2.90;;;9.20;91.10;;;;;;5074968;28;20036;-38
2022/11/28 06:23:17;;;;;;;2.80;2.38;;;9.30;91.10;;;;;;5074827;28;20024;-27
2022/11/28 06:25:43;;;;;;;3.50;3.20;;;9.30;91.10;;;;;;5074118;28;20039;-29
2022/11/28 06:28:08;;;;;;;2.95;2.65;;;9.30;91.10;;;;;;5074820;28;20028;-28
2022/11/28 06:30:34;;;;;;;3.60;2.90;;;9.30;91.10;;;;;;5074799;28;20025;-29
2022/11/28 06:32:59;;;;;;;3.25;2.95;;;9.30;91.10;;;;;;5056786;28;20104;-30
2022/11/28 06:35:25;;;;;;;3.50;2.88;;;9.30;91.10;;;;;;5074690;28;20036;-31
2022/11/28 06:37:51;;;;;;;3.17;2.78;;;9.30;91.10;;;;;;5074838;28;20765;-29
2022/11/28 06:40:16;;;;;;;3.08;2.78;;;9.30;91.10;;;;;;5074797;28;20028;-33
2022/11/28 06:42:42;;;;;;;3.58;2.92;;;9.30;91.10;;;;;;5074669;28;20561;-29
2022/11/28 06:45:08;;;;;;;3.10;2.75;;;9.30;91.10;;;;;;5074635;28;20033;-32
2022/11/28 06:47:34;;;;;;;2.95;2.65;;;9.30;91.10;;;;;;5074570;28;20029;-32
2022/11/28 06:49:59;;;;;;;3.20;2.90;;;9.30;91.10;;;;;;5074380;28;20043;-29
2022/11/28 06:52:25;;;;;;;3.72;3.05;;;9.30;91.10;;;;;;5056347;28;20488;-28
2022/11/28 06:54:51;;;;;;;3.38;2.75;;;9.30;91.10;;;;;;5074227;28;20495;-31
2022/11/28 06:57:17;;;;;;;3.08;2.70;;;9.30;91.10;;;;;;5074252;28;20024;-31
2022/11/28 06:59:42;;;;;;;3.40;2.95;;;9.30;91.30;;;;;;5074264;28;20032;-30
2022/11/28 07:02:10;;;;;;;3.22;2.90;;;9.30;91.10;;;;;;5074117;28;20025;-29
2022/11/28 07:04:36;;;;;;;3.25;2.95;;;9.30;91.10;;;;;;5074080;28;20166;-29
2022/11/28 07:07:02;;;;;;;4.68;3.13;;;9.40;91.10;;;;;;5073994;28;20522;-29
2022/11/28 07:09:28;;;;;;;4.43;2.90;;;9.40;91.10;;;;;;5073776;28;20056;-30
2022/11/28 07:11:53;;;;;;;2.97;2.67;;;9.40;91.10;;;;;;5073757;28;20036;-34
2022/11/28 07:14:19;;;;;;;3.92;3.17;;;9.40;91.10;;;;;;5073683;28;20036;-27
2022/11/28 07:16:46;;;;;;;3.28;2.97;;;9.40;91.10;;;;;;5073720;28;20480;-34
2022/11/28 07:19:12;;;;;;;3.50;3.20;;;9.30;91.00;;;;;;5073608;28;20123;-30
2022/11/28 07:21:38;;;;;;;3.35;3.05;;;9.30;91.00;;;;;;5073501;28;20052;-34
2022/11/28 07:24:04;;;;;;;3.53;3.22;;;9.30;91.00;;;;;;5073568;28;20047;-30
2022/11/28 07:26:29;;;;;;;3.85;2.85;;;9.30;91.00;;;;;;5073566;28;20384;-27
2022/11/28 07:28:57;;;;;;;3.35;3.05;;;9.30;91.00;;;;;;5073547;28;20024;-28
2022/11/28 07:31:25;;;;;;;3.13;2.80;;;9.30;91.10;;;;;;5073381;28;20026;-37
2022/11/28 07:33:51;;;;;;;3.50;3.17;;;9.30;91.00;;;;;;5073356;28;20062;-33
2022/11/28 07:36:25;;;;;;;3.33;2.83;;;9.40;91.00;;;;;;5072842;28;20064;-29
2022/11/28 07:38:56;;;;;;;3.70;3.13;;;9.30;91.00;;;;;;5054470;28;20032;-29
2022/11/28 07:41:22;;;;;;;3.45;3.15;;;9.40;91.10;;;;;;5073223;28;20031;-34
2022/11/28 07:43:49;;;;;;;3.20;2.67;;;9.40;91.10;;;;;;5073166;28;20025;-28
2022/11/28 07:46:17;;;;;;;4.10;3.10;;;9.40;91.10;;;;;;5073253;28;20029;-32
2022/11/28 07:48:43;;;;;;;4.22;3.40;;;9.40;91.10;;;;;;5072938;28;20094;-28
2022/11/28 07:51:11;;;;;;;4.03;3.63;;;9.40;91.10;;;;;;5073045;28;20024;-29
2022/11/28 07:53:38;;;;;;;3.75;3.35;;;9.40;91.40;;;;;;5072720;28;20353;-31
2022/11/28 07:56:05;;;;;;;3.70;3.40;;;9.40;91.10;;;;;;5073014;28;20115;-29
2022/11/28 07:58:33;;;;;;;4.25;3.47;;;9.40;91.00;;;;;;5072901;28;20039;-30
2022/11/28 08:00:58;;;;;;;4.70;3.30;;;9.40;91.10;;;;;;5072850;28;20028;-33
2022/11/28 08:03:24;;;;;;;3.92;3.53;;;9.40;91.00;;;;;;5072770;28;20069;-31
2022/11/28 08:05:50;;;;;;;4.15;3.35;;;9.40;91.00;;;;;;5072845;28;20032;-33
2022/11/28 08:08:16;;;;;;;4.38;3.42;;;9.30;91.00;;;;;;5072654;28;20024;-33
2022/11/28 08:10:42;;;;;;;3.40;3.10;;;9.40;91.10;;;;;;5072667;28;20040;-29
2022/11/28 08:13:07;;;;;;;4.00;3.60;;;9.40;91.00;;;;;;5072671;28;20021;-33
2022/11/28 08:15:36;;;;;;;4.13;3.53;;;9.40;91.10;;;;;;5072574;28;20029;-31
2022/11/28 08:18:02;;;;;;;4.40;3.60;;;9.40;91.00;;;;;;5054756;28;20024;-29
2022/11/28 08:20:27;;;;;;;5.13;4.20;;;9.40;91.00;;;;;;5072675;28;20027;-30
2022/11/28 08:22:53;;;;;;;4.55;3.67;;;9.40;91.00;;;;;;5072561;28;20442;-29
2022/11/28 08:25:19;;;;;;;4.90;4.00;;;9.40;91.10;;;;;;5072446;28;20114;-30
2022/11/28 08:27:44;;;;;;;4.55;3.78;;;9.40;91.10;;;;;;5072405;28;20024;-34
2022/11/28 08:30:10;;;;;;;4.32;3.58;;;9.40;91.10;;;;;;5072202;28;20028;-32
2022/11/28 08:32:36;;;;;;;4.85;4.35;;;9.40;91.10;;;;;;5072063;28;20017;-31
2022/11/28 08:35:02;;;;;;;4.38;3.78;;;9.40;91.00;;;;;;5072125;28;20040;-27
2022/11/28 08:37:27;;;;;;;4.53;3.90;;;9.50;91.10;;;;;;5072354;28;20025;-31
2022/11/28 08:39:53;;;;;;;4.68;4.18;;;9.50;91.10;;;;;;5072572;28;20097;-31
2022/11/28 08:42:19;;;;;;;4.60;4.10;;;9.50;91.10;;;;;;5072332;28;20031;-33
2022/11/28 08:44:45;;;;;;;5.50;4.65;;;9.50;91.10;;;;;;5072336;28;20032;-29
2022/11/28 08:47:10;;;;;;;4.65;4.15;;;9.50;91.00;;;;;;5072342;28;20093;-28
2022/11/28 08:49:37;;;;;;;5.68;4.50;;;9.50;91.10;;;;;;5072283;28;20029;-33
2022/11/28 08:52:04;;;;;;;4.47;3.97;;;9.60;91.00;;;;;;5072244;28;20503;-30
2022/11/28 08:54:30;;;;;;;5.10;4.20;;;9.60;91.00;;;;;;5072061;28;20040;-29
2022/11/28 08:56:55;;;;;;;5.40;4.32;;;9.60;91.00;;;;;;5072479;28;20017;-31
2022/11/28 08:59:21;;;;;;;4.70;4.00;;;9.60;91.10;;;;;;5072026;28;20081;-28
2022/11/28 09:01:46;;;;;;;4.13;3.58;;;9.60;91.00;;;;;;5072064;28;20029;-31
2022/11/28 09:04:12;;;;;;;5.00;3.95;;;9.60;91.00;;;;;;5072187;28;20024;-29
2022/11/28 09:06:39;;;;;;;6.28;4.65;;;9.60;91.00;;;;;;5072071;28;20058;-32
2022/11/28 09:09:05;;;;;;;4.13;3.72;;;9.70;91.00;;;;;;5072011;28;20104;-31
2022/11/28 09:11:31;;;;;;;6.00;4.57;;;9.60;91.00;;;;;;5071815;28;20492;-29
2022/11/28 09:13:58;;;;;;;5.22;4.38;;;9.60;91.00;;;;;;5072252;28;20020;-28
2022/11/28 09:16:23;;;;;;;4.97;4.10;;;9.70;91.00;;;;;;5072141;28;20043;-29
2022/11/28 09:18:50;;;;;;;4.80;4.18;;;9.70;91.00;;;;;;5071847;28;20119;-29
2022/11/28 09:21:16;;;;;;;4.70;4.05;;;9.70;91.00;;;;;;5071828;28;20051;-30
2022/11/28 09:23:42;;;;;;;5.28;4.25;;;9.70;91.00;;;;;;5071940;28;20455;-29
2022/11/28 09:26:10;;;;;;;5.40;4.30;;;9.70;91.00;;;;;;5072102;28;20036;-34
2022/11/28 09:28:36;;;;;;;4.10;3.70;;;9.80;91.00;;;;;;5072060;28;20099;-32
2022/11/28 09:31:03;;;;;;;4.50;4.10;;;9.80;91.00;;;;;;5072259;28;20415;-31
2022/11/28 09:33:29;;;;;;;5.07;4.05;;;9.70;91.00;;;;;;5072022;28;20472;-31
2022/11/28 09:35:57;;;;;;;4.88;4.25;;;9.80;91.00;;;;;;5071833;28;20029;-30
2022/11/28 09:38:23;;;;;;;5.15;4.32;;;9.80;91.00;;;;;;5071841;28;20106;-31
2022/11/28 09:40:49;;;;;;;5.00;4.30;;;9.80;91.00;;;;;;5071772;28;20025;-30
2022/11/28 09:43:22;;;;;;;4.95;4.20;;;9.80;91.00;;;;;;5071949;28;20020;-31
2022/11/28 09:45:52;;;;;;;4.78;4.10;;;9.80;91.00;;;;;;5072125;28;20046;-31
2022/11/28 09:48:42;;;;;;;4.00;3.60;;;9.80;91.00;;;;;;5053760;28;20033;-34
2022/11/28 09:51:53;;;;;;;4.85;4.07;;;9.90;91.00;;;;;;5072010;28;20037;-32
2022/11/28 09:54:35;;;;;;;4.93;3.88;;;9.90;91.00;;;;;;5071547;28;20112;-34
2022/11/28 09:57:07;;;;;;;5.03;4.05;;;9.90;91.00;;;;;;5071776;28;20387;-31
2022/11/28 09:59:33;;;;;;;4.10;3.70;;;9.90;91.00;;;;;;5071873;28;20035;-31
2022/11/28 10:02:08;;;;;;;4.68;3.78;;;9.90;91.00;;;;;;5074469;28;20036;-32
2022/11/28 10:04:34;;;;;;;3.70;3.40;;;9.90;91.00;;;;;;5075126;28;20044;-32
2022/11/28 10:07:05;;;;;;;4.65;3.83;;;9.90;91.00;;;;;;5075024;28;20036;-29
2022/11/28 10:09:37;;;;;;;4.28;3.80;;;9.90;91.00;;;;;;5075045;28;20101;-32
2022/11/28 10:12:25;;;;;;;4.22;3.83;;;9.90;91.00;;;;;;5075126;28;20067;-29
2022/11/28 10:15:05;;;;;;;4.07;3.67;;;9.90;90.90;;;;;;5074977;28;20089;-28
2022/11/28 10:18:01;;;;;;;5.05;4.10;;;9.90;90.90;;;;;;5074885;28;20039;-28
2022/11/28 10:20:30;;;;;;;5.18;4.15;;;9.90;90.90;;;;;;5074798;28;20024;-30
2022/11/28 10:23:25;;;;;;;4.90;3.97;;;9.90;90.90;;;;;;5074693;28;20499;-34
2022/11/28 10:26:06;;;;;;;4.07;3.67;;;9.90;90.90;;;;;;5074702;28;20456;-28
2022/11/28 10:28:36;;;;;;;5.47;3.85;;;9.90;90.90;;;;;;5074746;28;20071;-30
2022/11/28 10:31:08;;;;;;;4.68;3.70;;;10.00;90.90;;;;;;5074542;28;20116;-32
2022/11/28 10:33:43;;;;;;;4.47;3.95;;;9.90;90.90;;;;;;5074649;28;20035;-33
2022/11/28 10:36:20;;;;;;;4.00;3.53;;;9.90;90.90;;;;;;5074593;28;20037;-33
2022/11/28 10:38:45;;;;;;;4.22;3.83;;;9.90;90.90;;;;;;5074512;28;20024;-30
2022/11/28 10:41:30;;;;;;;4.45;3.50;;;9.90;90.90;;;;;;5074511;28;20029;-32
2022/11/28 10:44:03;;;;;;;4.25;3.85;;;9.90;90.90;;;;;;5074440;28;20133;-32
2022/11/28 10:47:00;;;;;;;5.10;3.50;;;10.00;90.90;;;;;;5074462;28;20040;-30
2022/11/28 10:50:07;;;;;;;4.40;3.63;;;10.00;90.90;;;;;;5074316;28;20127;-33
2022/11/28 10:52:43;;;;;;;4.93;3.88;;;10.00;91.00;;;;;;5036183;28;20097;-28
2022/11/28 10:55:33;;;;;;;4.72;3.92;;;10.00;90.90;;;;;;5074201;28;20036;-33
2022/11/28 10:58:22;;;;;;;4.85;4.05;;;10.00;90.90;;;;;;5074130;28;20025;-31
2022/11/28 11:00:51;;;;;;;4.82;4.03;;;10.00;90.90;;;;;;5074253;28;20024;-32
2022/11/28 11:03:18;;;;;;;5.00;4.25;;;10.00;90.90;;;;;;5074164;28;20020;-32
2022/11/28 11:05:44;;;;;;;4.57;4.07;;;10.10;90.90;;;;;;5074215;28;20029;-32
2022/11/28 11:08:20;;;;;;;4.45;4.05;;;10.10;90.90;;;;;;5056039;28;20113;-32
2022/11/28 11:11:01;;;;;;;6.45;4.43;;;10.10;90.90;;;;;;5073865;28;20036;-30
2022/11/28 11:13:32;;;;;;;6.32;4.35;;;10.10;90.90;;;;;;5073812;28;20067;-30
2022/11/28 11:16:00;;;;;;;6.72;4.85;;;10.10;90.90;;;;;;5073892;28;20127;-32
2022/11/28 11:18:28;;;;;;;6.07;4.78;;;10.20;90.90;;;;;;5055878;28;20082;-35
2022/11/28 11:21:13;;;;;;;6.75;4.63;;;10.20;90.90;;;;;;5073698;28;20467;-34
2022/11/28 11:23:39;;;;;;;7.18;4.80;;;10.20;90.90;;;;;;5073749;28;20050;-35
2022/11/28 11:26:09;;;;;;;8.98;5.38;;;10.20;90.90;;;;;;5073669;28;20024;-34
2022/11/28 11:28:43;;;;;;;7.47;4.60;;;10.20;90.90;;;;;;5073633;28;20024;-31
2022/11/28 11:31:21;;;;;;;6.50;4.78;;;10.30;91.10;;;;;;5073508;28;20124;-28
2022/11/28 11:33:50;;;;;;;5.97;4.65;;;10.30;90.80;;;;;;5073615;28;20027;-30
2022/11/28 11:36:39;;;;;;;6.15;5.07;;;10.30;90.80;;;;;;5073438;28;20024;-30
2022/11/28 11:39:11;;;;;;;6.93;4.88;;;10.30;91.10;;;;;;5073391;28;20024;-33
2022/11/28 11:41:44;;;;;;;6.63;4.90;;;10.30;90.80;;;;;;5073293;28;20020;-31
2022/11/28 11:44:13;;;;;;;6.45;4.93;;;10.30;90.80;;;;;;5073268;28;20472;-32
2022/11/28 11:46:55;;;;;;;7.03;5.10;;;10.30;90.80;;;;;;5073190;28;20111;-30
2022/11/28 11:49:49;;;;;;;7.68;4.93;;;10.30;90.80;;;;;;5073001;28;20036;-33
2022/11/28 11:52:23;;;;;;;7.45;5.45;;;10.30;90.80;;;;;;5053333;28;20094;-30
2022/11/28 11:54:55;;;;;;;7.45;5.65;;;10.30;90.80;;;;;;5072912;28;20025;-31
2022/11/28 11:57:23;;;;;;;8.32;5.50;;;10.30;90.80;;;;;;5072986;28;20025;-35
2022/11/28 11:59:53;;;;;;;8.20;5.57;;;10.30;90.80;;;;;;5072874;28;20096;-32
2022/11/28 12:02:36;;;;;;;7.95;6.10;;;10.40;90.90;;;;;;5072882;28;20074;-31
2022/11/28 12:05:11;;;;;;;10.02;5.70;;;10.40;90.90;;;;;;5073022;28;20044;-34
2022/11/28 12:07:45;;;;;;;8.30;6.07;;;10.40;90.90;;;;;;5072720;28;20028;-30
2022/11/28 12:10:16;;;;;;;9.10;6.18;;;10.40;90.80;;;;;;5072523;28;20468;-31
2022/11/28 12:12:42;;;;;;;10.10;6.13;;;10.40;90.80;;;;;;5054967;28;20082;-31
2022/11/28 12:15:28;;;;;;;8.63;5.85;;;10.30;91.10;;;;;;5072476;28;20400;-33
2022/11/28 12:18:03;;;;;;;8.02;6.22;;;10.30;90.80;;;;;;5072744;28;20032;-30
2022/11/28 12:20:59;;;;;;;8.63;6.57;;;10.30;90.90;;;;;;5072299;28;20429;-33
2022/11/28 12:24:00;;;;;;;8.45;6.15;;;10.40;90.90;;;;;;5061159;28;20075;-28
2022/11/28 12:26:37;;;;;;;9.43;6.82;;;10.40;90.90;;;;;;5072513;28;20373;-31
2022/11/28 12:29:40;;;;;;;8.75;6.22;;;10.40;90.90;;;;;;5072472;28;20368;-35
2022/11/28 12:32:06;;;;;;;8.30;6.32;;;10.40;90.90;;;;;;5072433;28;20111;-32
2022/11/28 12:35:08;;;;;;;8.68;6.80;;;10.40;90.90;;;;;;5072273;28;20071;-33
2022/11/28 12:37:56;;;;;;;8.35;6.78;;;10.40;90.90;;;;;;5072273;28;20038;-36
2022/11/28 12:40:31;;;;;;;7.68;6.43;;;10.50;90.90;;;;;;5072140;28;20068;-30
2022/11/28 12:43:20;;;;;;;10.10;6.95;;;10.40;90.90;;;;;;5072557;28;20445;-34
2022/11/28 12:46:04;;;;;;;8.63;6.57;;;10.50;90.90;;;;;;5072258;28;20047;-34
2022/11/28 12:49:08;;;;;;;9.32;6.28;;;10.50;90.90;;;;;;5072261;28;20055;-32
2022/11/28 12:52:01;;;;;;;7.55;5.90;;;10.50;90.90;;;;;;4990297;28;20034;-32
2022/11/28 12:54:47;;;;;;;8.38;6.88;;;10.50;90.80;;;;;;5071942;28;20052;-36
2022/11/28 12:57:27;;;;;;;8.55;6.57;;;10.50;90.80;;;;;;5072234;28;20112;-33
2022/11/28 13:00:08;;;;;;;8.45;6.93;;;10.50;91.10;;;;;;5072173;28;20443;-30
2022/11/28 13:03:01;;;;;;;8.23;6.57;;;10.50;90.80;;;;;;5072161;28;20522;-32
2022/11/28 13:05:45;;;;;;;10.23;7.35;;;10.60;90.90;;;;;;5071970;28;20090;-29
2022/11/28 13:08:32;;;;;;;8.75;6.88;;;10.50;90.90;;;;;;5072178;28;20039;-33
2022/11/28 13:11:38;;;;;;;7.05;5.75;;;10.60;90.90;;;;;;5071881;28;20044;-33
2022/11/28 13:14:25;;;;;;;8.02;6.00;;;10.60;90.90;;;;;;5072097;28;20483;-31
2022/11/28 13:16:54;;;;;;;8.43;5.88;;;10.60;90.90;;;;;;5071973;28;20040;-33
2022/11/28 13:19:31;;;;;;;8.73;6.70;;;10.60;90.90;;;;;;5072159;28;20440;-33
2022/11/28 13:22:23;;;;;;;8.45;6.13;;;10.60;90.90;;;;;;5072085;28;20029;-31